Hampton, VA (23668)

1:16 AM EDT on October 22, 2014 (GMT -0400)
River Oaks | Change Station
CLOSE
Current Station
Personal Weather Station
Location: Hampton, VA
Elevation: 20 ft
Nearby Weather Stations

Elev 20 ft 37.04 °N, 76.33 °W | Updated 3 seconds ago

Mostly Cloudy
Mostly Cloudy
57.6 °F
Feels Like 57.6 °F
N
3.1
Wind Variable Wind from South
Gusts 3.1 mph

Today
High -- | Low -- °F
--% Chance of Precip.
Yesterday
High -- | Low -- °F
Precip. -- in
7:19 AM 6:19 PM
Waning Crescent, 3% visible
Pressure 29.87 in
Visibility 10.0 miles
Clouds Few 7000 ft
Mostly Cloudy 12000 ft
Dew Point 37 °F
Humidity 46%
Rainfall 0.00 in
Snow Depth Not available.
UV 0 out of 12
Pollen 1.70 out of 12
Ozone Good
PM2.5 Good
Flu Activity Local Activity
METAR KLFI 220458Z AUTO 33007KT 10SM FEW070 BKN120 14/12 A2985 RMK AO2 SLP115 T01370115 402270136 $

More Conditions Fewer Conditions

Pressure 29.87 in
Visibility 10.0 miles
Clouds Few 7000 ft
Mostly Cloudy 12000 ft
Dew Point 37 °F
Humidity 46%
Rainfall 0.00 in
Snow Depth Not available.
UV 0 out of 12
Pollen 1.70 out of 12
Ozone Good
PM2.5 Good
Flu Activity Local Activity
METAR KLFI 220458Z AUTO 33007KT 10SM FEW070 BKN120 14/12 A2985 RMK AO2 SLP115 T01370115 402270136 $

More Conditions Fewer Conditions

10-Day Weather Forecast

Almanac

Astronomy

Oct. 22, 2014 Rise Set
Actual Time 7:19 AM EDT 6:19 PM EDT
Civil Twilight 6:53 AM EDT 6:45 PM EDT
Nautical Twilight 6:22 AM EDT 7:16 PM EDT
Astronomical Twilight 5:52 AM EDT 7:46 PM EDT
Moon 6:00 AM EDT 5:43 PM EDT
Length of Visible Light 11h 52m
Length of Day
10h 59m
Tomorrow will be 2m 13s shorter.
Waning Crescent, 3% of the Moon is Illuminated
Today
Waning Crescent
Oct 23
New
Oct 30
First Quarter
Nov 6
Full
Nov 14
Last Quarter

Today's Extremes

State Highs State Lows

Community

WunderPhotos

Upload Photos

1,763,884 photos uploaded!

Nearby

Air Quality

  Air Quality AQ Index Pollutant
Yesterday Good
OZONE
Yesterday Good
PM2.5
Current Good
PM2.5
Current Good
OZONE
Tuesday Good
PM2.5
Wednesday Good
PM2.5

Snow Depth

Station Depth Elevation
No new snow has been reported.

Earthquake Activity

City Distance Mag. Time & Date
No recent earthquake activity has been reported nearby.
Minimum magnitude displayed is 2.5.

Coastal Water Temperatures

Place Temperature
No Stations Reporting

Nearby Weather Stations